Saga Sapphire — 9HOF8 — position and weather

sailwx.info

Track history (hours):
 
Tides and Currents Weather Stations Pressure Air Temp Water Temp Dewpoint Dewpoint Depression Visibility Wind Speed Wind Dir Waves Ship Positions

Saga Sapphire

Last reported at 2014-Aug-20 10:30 UTC. Time now 2014-Aug-20 10:43 UTC.
Position N 52°28' E 004°34'.

Length 200 m; draft 8.4 m.

Type: Passenger vessel. MMSI: 256208000.

Date/timePositionNaut miles runAvg speedWind from/ knotsBaromVisibWave heightAir tempDewpointWater temp
2014-Aug-20 10:30N 52°28' E 004°34'1 1.0
2014-Aug-20 09:34N 52°28' E 004°33'1010.0
2014-Aug-20 08:33N 52°30' E 004°16'1111.1
2014-Aug-20 07:33N 52°37' E 004°03'15213.4
2014-Aug-19 20:15N 54°22' E 000°58'1014.6
2014-Aug-19 19:33N 54°29' E 000°46'1414.5
2014-Aug-19 18:33N 54°39' E 000°27'1414.0
2014-Aug-19 17:33N 54°48' E 000°09'1413.6
2014-Aug-19 16:33N 54°58' W 000°08'8614.3
2014-Aug-19 10:33N 55°56' W 001°59'1616.0
2014-Aug-19 09:33N 56°03' W 002°25'1615.5
2014-Aug-19 08:33N 56°06' W 002°52'1211.8
2014-Aug-19 07:33N 56°00' W 003°11'1 1.1
2014-Aug-19 06:33N 55°59' W 003°11'0 0.3
2014-Aug-19 05:31N 55°59' W 003°11'0 0.0
2014-Aug-19 04:31N 55°59' W 003°11'0 0.0
2014-Aug-19 03:31N 55°59' W 003°11'0 0.0
2014-Aug-19 02:31N 55°59' W 003°11'0 0.0
2014-Aug-19 01:31N 55°59' W 003°11'0 0.0
2014-Aug-19 00:31N 55°59' W 003°11'0 0.0
2014-Aug-18 23:31N 55°59' W 003°11'0 0.0
2014-Aug-18 22:31N 55°59' W 003°11'0 0.0
2014-Aug-18 21:31N 55°59' W 003°11'0 0.0
2014-Aug-18 20:31N 55°59' W 003°11'0 0.0
2014-Aug-18 19:31N 55°59' W 003°11'0 0.0
2014-Aug-18 18:31N 55°59' W 003°11'0 0.0
2014-Aug-18 17:25N 55°59' W 003°11'0 0.0
2014-Aug-18 16:28N 55°59' W 003°11'0 0.0
2014-Aug-18 15:28N 55°59' W 003°11'0 0.0
2014-Aug-18 14:31N 55°59' W 003°11'0 0.0
2014-Aug-18 13:31N 55°59' W 003°11'0 0.0
2014-Aug-18 12:31N 55°59' W 003°11'0 0.0
2014-Aug-18 11:31N 55°59' W 003°11'0 0.0
2014-Aug-18 10:31N 55°59' W 003°11'0 0.0
2014-Aug-18 09:31N 55°59' W 003°11'0 0.0
2014-Aug-18 08:31N 55°59' W 003°11'0 0.0
2014-Aug-18 07:31N 55°59' W 003°11'0 0.0
2014-Aug-18 06:31N 55°59' W 003°11'0 0.0
2014-Aug-18 05:31N 55°59' W 003°11'0 0.0
2014-Aug-18 04:31N 55°59' W 003°11'0 0.0
2014-Aug-18 03:28N 55°59' W 003°11'0 0.0
2014-Aug-18 02:31N 55°59' W 003°11'0 0.0
2014-Aug-18 01:28N 55°59' W 003°11'0 0.0
2014-Aug-18 00:28N 55°59' W 003°11'0 0.1
2014-Aug-17 18:33N 55°59' W 003°11'1 1.3
2014-Aug-17 17:33N 56°01' W 003°10'8 8.3
2014-Aug-17 16:33N 56°04' W 002°57'9 8.9
2014-Aug-17 15:33N 56°07' W 002°42'8 8.2
2014-Aug-17 14:33N 56°03' W 002°55'0 0.1
2014-Aug-17 13:32N 56°03' W 002°55'0 0.1
2014-Aug-17 12:32N 56°03' W 002°55'0 0.3
2014-Aug-17 11:32N 56°03' W 002°55'0 0.0
2014-Aug-17 10:23N 56°03' W 002°55'3 3.2
2014-Aug-17 09:34N 56°05' W 002°52'1212.0
2014-Aug-17 08:33N 56°13' W 002°35'1312.6
2014-Aug-17 07:33N 56°22' W 002°20'1312.9
2014-Aug-17 06:32N 56°33' W 002°08'5 9.1
2014-Aug-17 06:00N 56°36' W 002°00'3313.7 210 / 19995.310.8 1.512.5 8.311.0
2014-Aug-17 03:33N 57°07' W 001°38'1212.3
2014-Aug-17 02:33N 57°19' W 001°31'5 9.2
2014-Aug-17 02:00N 57°24' W 001°30'818.0 260 / 18997.110.8 0.513.5 8.112.0
2014-Aug-17 01:34N 57°31' W 001°36'1211.6
2014-Aug-17 00:33N 57°42' W 001°43'1211.8
2014-Aug-16 23:33N 57°46' W 002°03'8 0.4
2014-Aug-16 01:15N 57°47' W 002°18'912.4
2014-Aug-16 00:33N 57°46' W 002°02'1211.7
2014-Aug-15 23:33N 57°46' W 001°40'1111.3
2014-Aug-15 22:34N 57°35' W 001°37'1515.3
2014-Aug-15 21:33N 57°20' W 001°38'12513.8
2014-Aug-15 12:30N 55°16' W 001°06'1313.8
2014-Aug-15 11:33N 55°06' W 000°51'1614.9
2014-Aug-15 10:28N 54°54' W 000°32'1314.7
2014-Aug-15 09:34N 54°44' W 000°17'1414.1
2014-Aug-15 08:33N 54°33' W 000°02'1413.5
2014-Aug-15 07:33N 54°22' E 000°13'1313.3
2014-Aug-15 06:33N 54°13' E 000°28'711.7
2014-Aug-15 06:00N 54°06' E 000°30'816.3 350 / 181012.510.8 1.014.8 9.814.0
2014-Aug-15 05:31N 54°00' E 000°38'4715.4
2014-Aug-15 02:29N 53°18' E 001°12'1516.0
2014-Aug-15 01:33N 53°05' E 001°24'1414.5
2014-Aug-15 00:33N 52°54' E 001°41'1413.6
2014-Aug-14 23:34N 52°47' E 001°59'1212.2
2014-Aug-14 22:34N 52°34' E 002°02'1312.8
2014-Aug-14 21:34N 52°22' E 001°58'1414.2
2014-Aug-14 20:33N 52°08' E 001°53'1616.2
2014-Aug-14 19:33N 51°52' E 001°48'1716.6
2014-Aug-14 18:33N 51°35' E 001°49'1717.2
2014-Aug-14 17:34N 51°19' E 001°42'1615.7
2014-Aug-14 16:33N 51°07' E 001°25'2 0.2
2014-Aug-14 07:27N 51°08' E 001°23'1112.0
2014-Aug-14 06:34N 51°13' E 001°38'1615.5
2014-Aug-14 05:34N 51°27' E 001°46'1514.5
2014-Aug-14 04:34N 51°39' E 001°60'3014.7
2014-Aug-14 02:33N 52°07' E 002°18'5 9.7
2014-Aug-14 02:00N 52°12' E 002°18'1126.2 270 / 161006.110.8 0.516.512.017.0
2014-Aug-14 01:33N 52°23' E 002°25'7616.7
2014-Aug-13 21:00N 53°36' E 003°00'20716.4 200 / 151000.510.8
2014-Aug-13 08:25N 56°19' E 006°40'1315.3
2014-Aug-13 07:33N 56°30' E 006°53'15017.5
2014-Aug-12 23:00N 58°30' E 009°42'26 7.1 180 / 201000.4 5.4 3.016.011.4
2014-Aug-12 19:19N 58°55' E 009°56'1013.3
2014-Aug-12 18:33N 58°58' E 010°15'55 3.5
2014-Aug-12 02:33N 58°05' E 010°45'1616.1
2014-Aug-12 01:33N 57°51' E 011°01'916.7
2014-Aug-12 01:00N 57°42' E 011°06'715.8 180 / 201003.410.8 1.017.212.318.0
2014-Aug-12 00:33N 57°37' E 011°15'1616.2
2014-Aug-11 23:33N 57°23' E 011°29'1616.2
2014-Aug-11 22:33N 57°08' E 011°39'1615.7
2014-Aug-11 21:33N 56°53' E 011°49'1414.2
2014-Aug-11 20:33N 56°39' E 011°47'96 4.9
2014-Aug-11 01:00N 55°06' E 011°00'40 7.4 140 / 91000.810.8 20.517.321.0
2014-Aug-10 19:33N 54°30' E 011°32'1211.3
2014-Aug-10 18:31N 54°26' E 011°51'1111.5
2014-Aug-10 17:33N 54°27' E 012°10'1110.8
2014-Aug-10 16:33N 54°36' E 012°18'1210.8
2014-Aug-10 15:26N 54°43' E 012°35'3611.4
2014-Aug-10 12:15N 54°58' E 013°32'4535.4
2014-Aug-10 11:00N 55°24' E 014°36'   310 / 71015.910.8 0.520.011.6
Track history (hours):
 
Tides and Currents Weather Stations Pressure Air Temp Water Temp Dewpoint Dewpoint Depression Visibility Wind Speed Wind Dir Waves Ship Positions

Saga Sapphire

Last reported at 2014-Aug-20 10:30 UTC. Time now 2014-Aug-20 10:43 UTC.
Position N 52°28' E 004°34'.

Length 200 m; draft 8.4 m.

Type: Passenger vessel. MMSI: 256208000.

Date/timePositionNaut miles runAvg speedWind from/ knotsBaromVisibWave heightAir tempDewpointWater temp
2014-Aug-20 10:30N 52°28' E 004°34'1 1.0
2014-Aug-20 09:34N 52°28' E 004°33'1010.0
2014-Aug-20 08:33N 52°30' E 004°16'1111.1
2014-Aug-20 07:33N 52°37' E 004°03'15213.4
2014-Aug-19 20:15N 54°22' E 000°58'1014.6
2014-Aug-19 19:33N 54°29' E 000°46'1414.5
2014-Aug-19 18:33N 54°39' E 000°27'1414.0
2014-Aug-19 17:33N 54°48' E 000°09'1413.6
2014-Aug-19 16:33N 54°58' W 000°08'8614.3
2014-Aug-19 10:33N 55°56' W 001°59'1616.0
2014-Aug-19 09:33N 56°03' W 002°25'1615.5
2014-Aug-19 08:33N 56°06' W 002°52'1211.8
2014-Aug-19 07:33N 56°00' W 003°11'1 1.1
2014-Aug-19 06:33N 55°59' W 003°11'0 0.3
2014-Aug-19 05:31N 55°59' W 003°11'0 0.0
2014-Aug-19 04:31N 55°59' W 003°11'0 0.0
2014-Aug-19 03:31N 55°59' W 003°11'0 0.0
2014-Aug-19 02:31N 55°59' W 003°11'0 0.0
2014-Aug-19 01:31N 55°59' W 003°11'0 0.0
2014-Aug-19 00:31N 55°59' W 003°11'0 0.0
2014-Aug-18 23:31N 55°59' W 003°11'0 0.0
2014-Aug-18 22:31N 55°59' W 003°11'0 0.0
2014-Aug-18 21:31N 55°59' W 003°11'0 0.0
2014-Aug-18 20:31N 55°59' W 003°11'0 0.0
2014-Aug-18 19:31N 55°59' W 003°11'0 0.0
2014-Aug-18 18:31N 55°59' W 003°11'0 0.0
2014-Aug-18 17:25N 55°59' W 003°11'0 0.0
2014-Aug-18 16:28N 55°59' W 003°11'0 0.0
2014-Aug-18 15:28N 55°59' W 003°11'0 0.0
2014-Aug-18 14:31N 55°59' W 003°11'0 0.0
2014-Aug-18 13:31N 55°59' W 003°11'0 0.0
2014-Aug-18 12:31N 55°59' W 003°11'0 0.0
2014-Aug-18 11:31N 55°59' W 003°11'0 0.0
2014-Aug-18 10:31N 55°59' W 003°11'0 0.0
2014-Aug-18 09:31N 55°59' W 003°11'0 0.0
2014-Aug-18 08:31N 55°59' W 003°11'0 0.0
2014-Aug-18 07:31N 55°59' W 003°11'0 0.0
2014-Aug-18 06:31N 55°59' W 003°11'0 0.0
2014-Aug-18 05:31N 55°59' W 003°11'0 0.0
2014-Aug-18 04:31N 55°59' W 003°11'0 0.0
2014-Aug-18 03:28N 55°59' W 003°11'0 0.0
2014-Aug-18 02:31N 55°59' W 003°11'0 0.0
2014-Aug-18 01:28N 55°59' W 003°11'0 0.0
2014-Aug-18 00:28N 55°59' W 003°11'0 0.1
2014-Aug-17 18:33N 55°59' W 003°11'1 1.3
2014-Aug-17 17:33N 56°01' W 003°10'8 8.3
2014-Aug-17 16:33N 56°04' W 002°57'9 8.9
2014-Aug-17 15:33N 56°07' W 002°42'8 8.2
2014-Aug-17 14:33N 56°03' W 002°55'0 0.1
2014-Aug-17 13:32N 56°03' W 002°55'0 0.1
2014-Aug-17 12:32N 56°03' W 002°55'0 0.3
2014-Aug-17 11:32N 56°03' W 002°55'0 0.0
2014-Aug-17 10:23N 56°03' W 002°55'3 3.2
2014-Aug-17 09:34N 56°05' W 002°52'1212.0
2014-Aug-17 08:33N 56°13' W 002°35'1312.6
2014-Aug-17 07:33N 56°22' W 002°20'1312.9
2014-Aug-17 06:32N 56°33' W 002°08'5 9.1
2014-Aug-17 06:00N 56°36' W 002°00'3313.7 210 / 19995.310.8 1.512.5 8.311.0
2014-Aug-17 03:33N 57°07' W 001°38'1212.3
2014-Aug-17 02:33N 57°19' W 001°31'5 9.2
2014-Aug-17 02:00N 57°24' W 001°30'818.0 260 / 18997.110.8 0.513.5 8.112.0
2014-Aug-17 01:34N 57°31' W 001°36'1211.6
2014-Aug-17 00:33N 57°42' W 001°43'1211.8
2014-Aug-16 23:33N 57°46' W 002°03'8 0.4
2014-Aug-16 01:15N 57°47' W 002°18'912.4
2014-Aug-16 00:33N 57°46' W 002°02'1211.7
2014-Aug-15 23:33N 57°46' W 001°40'1111.3
2014-Aug-15 22:34N 57°35' W 001°37'1515.3
2014-Aug-15 21:33N 57°20' W 001°38'12513.8
2014-Aug-15 12:30N 55°16' W 001°06'1313.8
2014-Aug-15 11:33N 55°06' W 000°51'1614.9
2014-Aug-15 10:28N 54°54' W 000°32'1314.7
2014-Aug-15 09:34N 54°44' W 000°17'1414.1
2014-Aug-15 08:33N 54°33' W 000°02'1413.5
2014-Aug-15 07:33N 54°22' E 000°13'1313.3
2014-Aug-15 06:33N 54°13' E 000°28'711.7
2014-Aug-15 06:00N 54°06' E 000°30'816.3 350 / 181012.510.8 1.014.8 9.814.0
2014-Aug-15 05:31N 54°00' E 000°38'4715.4
2014-Aug-15 02:29N 53°18' E 001°12'1516.0
2014-Aug-15 01:33N 53°05' E 001°24'1414.5
2014-Aug-15 00:33N 52°54' E 001°41'1413.6
2014-Aug-14 23:34N 52°47' E 001°59'1212.2
2014-Aug-14 22:34N 52°34' E 002°02'1312.8
2014-Aug-14 21:34N 52°22' E 001°58'1414.2
2014-Aug-14 20:33N 52°08' E 001°53'1616.2
2014-Aug-14 19:33N 51°52' E 001°48'1716.6
2014-Aug-14 18:33N 51°35' E 001°49'1717.2
2014-Aug-14 17:34N 51°19' E 001°42'1615.7
2014-Aug-14 16:33N 51°07' E 001°25'2 0.2
2014-Aug-14 07:27N 51°08' E 001°23'1112.0
2014-Aug-14 06:34N 51°13' E 001°38'1615.5
2014-Aug-14 05:34N 51°27' E 001°46'1514.5
2014-Aug-14 04:34N 51°39' E 001°60'3014.7
2014-Aug-14 02:33N 52°07' E 002°18'5 9.7
2014-Aug-14 02:00N 52°12' E 002°18'1126.2 270 / 161006.110.8 0.516.512.017.0
2014-Aug-14 01:33N 52°23' E 002°25'7616.7
2014-Aug-13 21:00N 53°36' E 003°00'20716.4 200 / 151000.510.8
2014-Aug-13 08:25N 56°19' E 006°40'1315.3
2014-Aug-13 07:33N 56°30' E 006°53'15017.5
2014-Aug-12 23:00N 58°30' E 009°42'26 7.1 180 / 201000.4 5.4 3.016.011.4
2014-Aug-12 19:19N 58°55' E 009°56'1013.3
2014-Aug-12 18:33N 58°58' E 010°15'55 3.5
2014-Aug-12 02:33N 58°05' E 010°45'1616.1
2014-Aug-12 01:33N 57°51' E 011°01'916.7
2014-Aug-12 01:00N 57°42' E 011°06'715.8 180 / 201003.410.8 1.017.212.318.0
2014-Aug-12 00:33N 57°37' E 011°15'1616.2
2014-Aug-11 23:33N 57°23' E 011°29'1616.2
2014-Aug-11 22:33N 57°08' E 011°39'1615.7
2014-Aug-11 21:33N 56°53' E 011°49'1414.2
2014-Aug-11 20:33N 56°39' E 011°47'96 4.9
2014-Aug-11 01:00N 55°06' E 011°00'40 7.4 140 / 91000.810.8 20.517.321.0
2014-Aug-10 19:33N 54°30' E 011°32'1211.3
2014-Aug-10 18:31N 54°26' E 011°51'1111.5
2014-Aug-10 17:33N 54°27' E 012°10'1110.8
2014-Aug-10 16:33N 54°36' E 012°18'1210.8
2014-Aug-10 15:26N 54°43' E 012°35'3611.4
2014-Aug-10 12:15N 54°58' E 013°32'4535.4
2014-Aug-10 11:00N 55°24' E 014°36'   310 / 71015.910.8 0.520.011.6

Dump ship's entire track history